sensor_id;sensor_type;location;lat;lon;timestamp;P1;durP1;ratioP1;P2;durP2;ratioP2
36691;SDS011;22678;52.052;4.242;2023-04-15T00:01:07;2.33;;;1.15;;
36691;SDS011;22678;52.052;4.242;2023-04-15T00:03:33;7.55;;;2.03;;
36691;SDS011;22678;52.052;4.242;2023-04-15T00:05:59;8.10;;;2.17;;
36691;SDS011;22678;52.052;4.242;2023-04-15T00:08:25;6.00;;;1.75;;
36691;SDS011;22678;52.052;4.242;2023-04-15T00:10:51;2.80;;;1.05;;
36691;SDS011;22678;52.052;4.242;2023-04-15T00:13:17;14.68;;;2.53;;
36691;SDS011;22678;52.052;4.242;2023-04-15T00:15:42;6.93;;;1.55;;
36691;SDS011;22678;52.052;4.242;2023-04-15T00:18:07;4.63;;;1.88;;
36691;SDS011;22678;52.052;4.242;2023-04-15T00:20:33;5.10;;;1.92;;
36691;SDS011;22678;52.052;4.242;2023-04-15T00:22:59;4.25;;;1.70;;
36691;SDS011;22678;52.052;4.242;2023-04-15T00:25:26;8.07;;;1.42;;
36691;SDS011;22678;52.052;4.242;2023-04-15T00:27:52;7.47;;;2.05;;
36691;SDS011;22678;52.052;4.242;2023-04-15T00:30:17;4.30;;;1.27;;
36691;SDS011;22678;52.052;4.242;2023-04-15T00:32:43;9.77;;;2.50;;
36691;SDS011;22678;52.052;4.242;2023-04-15T00:35:08;6.40;;;1.48;;
36691;SDS011;22678;52.052;4.242;2023-04-15T00:37:34;6.72;;;1.70;;
36691;SDS011;22678;52.052;4.242;2023-04-15T00:40:00;7.40;;;4.15;;
36691;SDS011;22678;52.052;4.242;2023-04-15T00:42:29;6.70;;;1.85;;
36691;SDS011;22678;52.052;4.242;2023-04-15T00:44:55;8.20;;;2.03;;
36691;SDS011;22678;52.052;4.242;2023-04-15T00:47:21;7.93;;;1.90;;
36691;SDS011;22678;52.052;4.242;2023-04-15T00:49:46;6.17;;;2.57;;
36691;SDS011;22678;52.052;4.242;2023-04-15T00:52:12;10.05;;;1.98;;
36691;SDS011;22678;52.052;4.242;2023-04-15T00:54:37;4.33;;;1.70;;
36691;SDS011;22678;52.052;4.242;2023-04-15T00:57:04;7.45;;;3.15;;
36691;SDS011;22678;52.052;4.242;2023-04-15T00:59:30;7.32;;;2.70;;
36691;SDS011;22678;52.052;4.242;2023-04-15T01:01:57;10.40;;;3.00;;
36691;SDS011;22678;52.052;4.242;2023-04-15T01:04:23;7.78;;;2.60;;
36691;SDS011;22678;52.052;4.242;2023-04-15T01:06:49;12.10;;;2.90;;
36691;SDS011;22678;52.052;4.242;2023-04-15T01:09:15;8.77;;;3.30;;
36691;SDS011;22678;52.052;4.242;2023-04-15T01:11:40;7.05;;;3.38;;
36691;SDS011;22678;52.052;4.242;2023-04-15T01:14:06;7.70;;;2.53;;
36691;SDS011;22678;52.052;4.242;2023-04-15T01:16:33;4.22;;;2.35;;
36691;SDS011;22678;52.052;4.242;2023-04-15T01:18:58;10.63;;;4.13;;
36691;SDS011;22678;52.052;4.242;2023-04-15T01:21:24;8.85;;;3.00;;
36691;SDS011;22678;52.052;4.242;2023-04-15T01:23:49;10.27;;;3.47;;
36691;SDS011;22678;52.052;4.242;2023-04-15T01:26:17;9.97;;;3.20;;
36691;SDS011;22678;52.052;4.242;2023-04-15T01:28:42;4.80;;;2.00;;
36691;SDS011;22678;52.052;4.242;2023-04-15T01:31:12;6.43;;;2.77;;
36691;SDS011;22678;52.052;4.242;2023-04-15T01:33:39;6.63;;;2.73;;
36691;SDS011;22678;52.052;4.242;2023-04-15T01:36:07;8.67;;;2.87;;
36691;SDS011;22678;52.052;4.242;2023-04-15T01:38:34;6.00;;;3.30;;
36691;SDS011;22678;52.052;4.242;2023-04-15T01:41:00;7.50;;;2.70;;
36691;SDS011;22678;52.052;4.242;2023-04-15T01:43:25;9.13;;;3.07;;
36691;SDS011;22678;52.052;4.242;2023-04-15T01:45:52;9.40;;;3.77;;
36691;SDS011;22678;52.052;4.242;2023-04-15T01:48:17;8.77;;;4.27;;
36691;SDS011;22678;52.052;4.242;2023-04-15T01:50:43;5.33;;;2.77;;
36691;SDS011;22678;52.052;4.242;2023-04-15T01:53:09;7.73;;;3.20;;
36691;SDS011;22678;52.052;4.242;2023-04-15T01:55:34;9.07;;;2.17;;
36691;SDS011;22678;52.052;4.242;2023-04-15T01:58:00;7.13;;;3.17;;
36691;SDS011;22678;52.052;4.242;2023-04-15T02:00:26;4.67;;;2.37;;
36691;SDS011;22678;52.052;4.242;2023-04-15T02:02:52;6.97;;;3.60;;
36691;SDS011;22678;52.052;4.242;2023-04-15T02:05:17;5.97;;;2.57;;
36691;SDS011;22678;52.052;4.242;2023-04-15T02:07:43;8.17;;;3.50;;
36691;SDS011;22678;52.052;4.242;2023-04-15T02:10:09;10.67;;;3.37;;
36691;SDS011;22678;52.052;4.242;2023-04-15T02:12:35;4.33;;;2.43;;
36691;SDS011;22678;52.052;4.242;2023-04-15T02:15:01;6.50;;;3.00;;
36691;SDS011;22678;52.052;4.242;2023-04-15T02:17:26;5.40;;;2.97;;
36691;SDS011;22678;52.052;4.242;2023-04-15T02:19:51;7.03;;;2.70;;
36691;SDS011;22678;52.052;4.242;2023-04-15T02:22:17;8.30;;;3.17;;
36691;SDS011;22678;52.052;4.242;2023-04-15T02:24:42;3.93;;;2.30;;
36691;SDS011;22678;52.052;4.242;2023-04-15T02:27:10;7.23;;;2.63;;
36691;SDS011;22678;52.052;4.242;2023-04-15T02:29:35;11.77;;;2.80;;
36691;SDS011;22678;52.052;4.242;2023-04-15T02:32:00;9.97;;;3.50;;
36691;SDS011;22678;52.052;4.242;2023-04-15T02:34:26;6.53;;;3.17;;
36691;SDS011;22678;52.052;4.242;2023-04-15T02:36:51;6.07;;;3.00;;
36691;SDS011;22678;52.052;4.242;2023-04-15T02:39:21;6.00;;;3.00;;
36691;SDS011;22678;52.052;4.242;2023-04-15T02:41:46;5.77;;;2.57;;
36691;SDS011;22678;52.052;4.242;2023-04-15T02:44:15;7.83;;;4.13;;
36691;SDS011;22678;52.052;4.242;2023-04-15T02:46:44;5.23;;;2.77;;
36691;SDS011;22678;52.052;4.242;2023-04-15T02:49:10;9.47;;;2.83;;
36691;SDS011;22678;52.052;4.242;2023-04-15T02:51:35;9.27;;;3.77;;
36691;SDS011;22678;52.052;4.242;2023-04-15T02:54:01;12.07;;;3.77;;
36691;SDS011;22678;52.052;4.242;2023-04-15T02:56:26;8.47;;;3.17;;
36691;SDS011;22678;52.052;4.242;2023-04-15T02:58:52;7.83;;;3.03;;
36691;SDS011;22678;52.052;4.242;2023-04-15T03:01:20;10.03;;;3.07;;
36691;SDS011;22678;52.052;4.242;2023-04-15T03:03:46;5.90;;;2.23;;
36691;SDS011;22678;52.052;4.242;2023-04-15T03:06:11;6.57;;;2.93;;
36691;SDS011;22678;52.052;4.242;2023-04-15T03:08:36;7.27;;;3.60;;
36691;SDS011;22678;52.052;4.242;2023-04-15T03:11:02;10.00;;;3.20;;
36691;SDS011;22678;52.052;4.242;2023-04-15T03:13:28;7.83;;;4.33;;
36691;SDS011;22678;52.052;4.242;2023-04-15T03:15:53;9.83;;;3.33;;
36691;SDS011;22678;52.052;4.242;2023-04-15T03:18:18;10.40;;;3.10;;
36691;SDS011;22678;52.052;4.242;2023-04-15T03:20:44;9.17;;;3.90;;
36691;SDS011;22678;52.052;4.242;2023-04-15T03:23:09;10.27;;;3.90;;
36691;SDS011;22678;52.052;4.242;2023-04-15T03:25:35;7.73;;;3.07;;
36691;SDS011;22678;52.052;4.242;2023-04-15T03:28:01;12.57;;;3.57;;
36691;SDS011;22678;52.052;4.242;2023-04-15T03:30:27;10.27;;;2.60;;
36691;SDS011;22678;52.052;4.242;2023-04-15T03:32:52;6.53;;;3.50;;
36691;SDS011;22678;52.052;4.242;2023-04-15T03:35:18;5.83;;;3.43;;
36691;SDS011;22678;52.052;4.242;2023-04-15T03:37:43;6.40;;;2.67;;
36691;SDS011;22678;52.052;4.242;2023-04-15T03:40:08;7.17;;;3.37;;
36691;SDS011;22678;52.052;4.242;2023-04-15T03:42:34;5.63;;;3.50;;
36691;SDS011;22678;52.052;4.242;2023-04-15T03:44:59;10.17;;;4.67;;
36691;SDS011;22678;52.052;4.242;2023-04-15T03:47:25;9.50;;;3.50;;
36691;SDS011;22678;52.052;4.242;2023-04-15T03:49:50;8.90;;;2.90;;
36691;SDS011;22678;52.052;4.242;2023-04-15T03:52:16;6.07;;;4.10;;
36691;SDS011;22678;52.052;4.242;2023-04-15T03:54:41;5.93;;;3.67;;
36691;SDS011;22678;52.052;4.242;2023-04-15T03:57:06;4.50;;;2.60;;
36691;SDS011;22678;52.052;4.242;2023-04-15T03:59:31;7.20;;;3.27;;
36691;SDS011;22678;52.052;4.242;2023-04-15T04:01:57;7.00;;;4.03;;
36691;SDS011;22678;52.052;4.242;2023-04-15T04:04:22;6.97;;;3.23;;
36691;SDS011;22678;52.052;4.242;2023-04-15T04:06:47;6.70;;;2.80;;
36691;SDS011;22678;52.052;4.242;2023-04-15T04:09:13;7.60;;;3.33;;
36691;SDS011;22678;52.052;4.242;2023-04-15T04:11:38;5.00;;;2.87;;
36691;SDS011;22678;52.052;4.242;2023-04-15T04:14:03;7.03;;;2.97;;
36691;SDS011;22678;52.052;4.242;2023-04-15T04:16:29;7.80;;;3.60;;
36691;SDS011;22678;52.052;4.242;2023-04-15T04:18:54;8.57;;;3.83;;
36691;SDS011;22678;52.052;4.242;2023-04-15T04:21:19;5.83;;;3.10;;
36691;SDS011;22678;52.052;4.242;2023-04-15T04:23:45;8.57;;;3.20;;
36691;SDS011;22678;52.052;4.242;2023-04-15T04:26:11;8.17;;;3.57;;
36691;SDS011;22678;52.052;4.242;2023-04-15T04:28:36;5.53;;;3.43;;
36691;SDS011;22678;52.052;4.242;2023-04-15T04:31:03;11.90;;;3.37;;
36691;SDS011;22678;52.052;4.242;2023-04-15T04:33:28;7.43;;;3.50;;
36691;SDS011;22678;52.052;4.242;2023-04-15T04:35:54;6.67;;;3.83;;
36691;SDS011;22678;52.052;4.242;2023-04-15T04:38:19;10.13;;;4.17;;
36691;SDS011;22678;52.052;4.242;2023-04-15T04:40:45;12.27;;;4.10;;
36691;SDS011;22678;52.052;4.242;2023-04-15T04:43:10;10.30;;;4.00;;
36691;SDS011;22678;52.052;4.242;2023-04-15T04:45:36;7.93;;;3.87;;
36691;SDS011;22678;52.052;4.242;2023-04-15T04:48:01;10.90;;;2.90;;
36691;SDS011;22678;52.052;4.242;2023-04-15T04:50:30;5.93;;;3.07;;
36691;SDS011;22678;52.052;4.242;2023-04-15T04:52:56;11.10;;;4.93;;
36691;SDS011;22678;52.052;4.242;2023-04-15T04:55:21;12.13;;;4.83;;
36691;SDS011;22678;52.052;4.242;2023-04-15T04:57:46;10.17;;;4.17;;
36691;SDS011;22678;52.052;4.242;2023-04-15T05:00:12;10.87;;;3.73;;
36691;SDS011;22678;52.052;4.242;2023-04-15T05:02:38;9.03;;;4.73;;
36691;SDS011;22678;52.052;4.242;2023-04-15T05:05:03;11.43;;;5.07;;
36691;SDS011;22678;52.052;4.242;2023-04-15T05:07:29;7.17;;;3.63;;
36691;SDS011;22678;52.052;4.242;2023-04-15T05:09:54;20.57;;;4.60;;
36691;SDS011;22678;52.052;4.242;2023-04-15T05:12:19;8.80;;;4.03;;
36691;SDS011;22678;52.052;4.242;2023-04-15T05:14:45;9.40;;;3.90;;
36691;SDS011;22678;52.052;4.242;2023-04-15T05:17:10;8.67;;;5.53;;
36691;SDS011;22678;52.052;4.242;2023-04-15T05:19:36;8.27;;;3.87;;
36691;SDS011;22678;52.052;4.242;2023-04-15T05:22:01;8.13;;;4.33;;
36691;SDS011;22678;52.052;4.242;2023-04-15T05:24:27;8.47;;;4.23;;
36691;SDS011;22678;52.052;4.242;2023-04-15T05:26:52;7.37;;;2.80;;
36691;SDS011;22678;52.052;4.242;2023-04-15T05:29:18;6.60;;;3.33;;
36691;SDS011;22678;52.052;4.242;2023-04-15T05:31:43;8.70;;;3.37;;
36691;SDS011;22678;52.052;4.242;2023-04-15T05:34:08;12.50;;;4.73;;
36691;SDS011;22678;52.052;4.242;2023-04-15T05:36:35;7.20;;;3.57;;
36691;SDS011;22678;52.052;4.242;2023-04-15T05:39:01;9.83;;;5.60;;
36691;SDS011;22678;52.052;4.242;2023-04-15T05:41:26;9.57;;;5.87;;
36691;SDS011;22678;52.052;4.242;2023-04-15T05:43:51;8.80;;;4.13;;
36691;SDS011;22678;52.052;4.242;2023-04-15T05:46:16;9.37;;;4.10;;
36691;SDS011;22678;52.052;4.242;2023-04-15T05:48:42;9.70;;;4.80;;
36691;SDS011;22678;52.052;4.242;2023-04-15T05:51:07;6.77;;;3.13;;
36691;SDS011;22678;52.052;4.242;2023-04-15T05:53:33;8.57;;;3.90;;
36691;SDS011;22678;52.052;4.242;2023-04-15T05:55:58;9.00;;;3.67;;
36691;SDS011;22678;52.052;4.242;2023-04-15T05:58:24;11.07;;;4.00;;
36691;SDS011;22678;52.052;4.242;2023-04-15T06:00:49;7.23;;;3.67;;
36691;SDS011;22678;52.052;4.242;2023-04-15T06:03:15;6.67;;;3.80;;
36691;SDS011;22678;52.052;4.242;2023-04-15T06:05:40;8.50;;;4.87;;
36691;SDS011;22678;52.052;4.242;2023-04-15T06:08:06;7.43;;;3.53;;
36691;SDS011;22678;52.052;4.242;2023-04-15T06:10:32;9.77;;;3.93;;
36691;SDS011;22678;52.052;4.242;2023-04-15T06:13:00;7.60;;;3.77;;
36691;SDS011;22678;52.052;4.242;2023-04-15T06:15:28;9.47;;;4.47;;
36691;SDS011;22678;52.052;4.242;2023-04-15T06:17:54;8.67;;;4.70;;
36691;SDS011;22678;52.052;4.242;2023-04-15T06:20:20;8.57;;;5.37;;
36691;SDS011;22678;52.052;4.242;2023-04-15T06:22:45;9.07;;;3.83;;
36691;SDS011;22678;52.052;4.242;2023-04-15T06:25:10;6.73;;;4.40;;
36691;SDS011;22678;52.052;4.242;2023-04-15T06:27:35;7.50;;;4.67;;
36691;SDS011;22678;52.052;4.242;2023-04-15T06:30:01;8.83;;;4.17;;
36691;SDS011;22678;52.052;4.242;2023-04-15T06:32:26;9.23;;;3.53;;
36691;SDS011;22678;52.052;4.242;2023-04-15T06:34:51;7.23;;;4.13;;
36691;SDS011;22678;52.052;4.242;2023-04-15T06:37:17;10.37;;;4.23;;
36691;SDS011;22678;52.052;4.242;2023-04-15T06:39:42;12.17;;;4.50;;
36691;SDS011;22678;52.052;4.242;2023-04-15T06:42:08;12.27;;;4.97;;
36691;SDS011;22678;52.052;4.242;2023-04-15T06:44:35;9.43;;;4.03;;
36691;SDS011;22678;52.052;4.242;2023-04-15T06:47:01;9.53;;;3.77;;
36691;SDS011;22678;52.052;4.242;2023-04-15T06:49:26;8.77;;;4.60;;
36691;SDS011;22678;52.052;4.242;2023-04-15T06:51:51;10.80;;;4.57;;
36691;SDS011;22678;52.052;4.242;2023-04-15T06:54:17;9.10;;;4.53;;
36691;SDS011;22678;52.052;4.242;2023-04-15T06:56:42;9.67;;;5.10;;
36691;SDS011;22678;52.052;4.242;2023-04-15T06:59:08;8.25;;;3.67;;
36691;SDS011;22678;52.052;4.242;2023-04-15T07:01:33;10.07;;;4.60;;
36691;SDS011;22678;52.052;4.242;2023-04-15T07:03:59;6.60;;;3.77;;
36691;SDS011;22678;52.052;4.242;2023-04-15T07:06:24;8.05;;;4.43;;
36691;SDS011;22678;52.052;4.242;2023-04-15T07:08:50;7.43;;;4.15;;
36691;SDS011;22678;52.052;4.242;2023-04-15T07:11:15;8.23;;;3.85;;
36691;SDS011;22678;52.052;4.242;2023-04-15T07:13:41;10.38;;;3.67;;
36691;SDS011;22678;52.052;4.242;2023-04-15T07:16:06;9.13;;;4.50;;
36691;SDS011;22678;52.052;4.242;2023-04-15T07:18:32;10.52;;;4.95;;
36691;SDS011;22678;52.052;4.242;2023-04-15T07:20:58;10.85;;;4.45;;
36691;SDS011;22678;52.052;4.242;2023-04-15T07:23:26;6.82;;;3.88;;
36691;SDS011;22678;52.052;4.242;2023-04-15T07:25:52;7.90;;;4.00;;
36691;SDS011;22678;52.052;4.242;2023-04-15T07:28:17;8.93;;;3.20;;
36691;SDS011;22678;52.052;4.242;2023-04-15T07:30:42;7.13;;;3.92;;
36691;SDS011;22678;52.052;4.242;2023-04-15T07:33:08;6.15;;;3.83;;
36691;SDS011;22678;52.052;4.242;2023-04-15T07:35:33;7.65;;;3.22;;
36691;SDS011;22678;52.052;4.242;2023-04-15T07:37:59;4.45;;;2.08;;
36691;SDS011;22678;52.052;4.242;2023-04-15T07:40:24;11.05;;;4.00;;
36691;SDS011;22678;52.052;4.242;2023-04-15T07:42:49;7.57;;;3.03;;
36691;SDS011;22678;52.052;4.242;2023-04-15T07:45:15;6.60;;;3.83;;
36691;SDS011;22678;52.052;4.242;2023-04-15T07:47:40;5.10;;;2.45;;
36691;SDS011;22678;52.052;4.242;2023-04-15T07:50:06;10.85;;;3.60;;
36691;SDS011;22678;52.052;4.242;2023-04-15T07:52:33;7.93;;;3.53;;
36691;SDS011;22678;52.052;4.242;2023-04-15T07:55:03;7.93;;;3.25;;
36691;SDS011;22678;52.052;4.242;2023-04-15T07:57:31;6.03;;;3.00;;
36691;SDS011;22678;52.052;4.242;2023-04-15T07:59:56;8.00;;;2.88;;
36691;SDS011;22678;52.052;4.242;2023-04-15T08:02:21;10.27;;;4.80;;
36691;SDS011;22678;52.052;4.242;2023-04-15T08:04:47;6.55;;;3.25;;
36691;SDS011;22678;52.052;4.242;2023-04-15T08:07:12;7.97;;;3.72;;
36691;SDS011;22678;52.052;4.242;2023-04-15T08:09:37;7.45;;;3.05;;
36691;SDS011;22678;52.052;4.242;2023-04-15T08:12:03;4.95;;;2.65;;
36691;SDS011;22678;52.052;4.242;2023-04-15T08:14:28;6.32;;;3.15;;
36691;SDS011;22678;52.052;4.242;2023-04-15T08:16:54;5.40;;;3.50;;
36691;SDS011;22678;52.052;4.242;2023-04-15T08:19:19;5.20;;;2.42;;
36691;SDS011;22678;52.052;4.242;2023-04-15T08:21:45;5.15;;;3.00;;
36691;SDS011;22678;52.052;4.242;2023-04-15T08:24:10;5.47;;;2.83;;
36691;SDS011;22678;52.052;4.242;2023-04-15T08:26:36;7.90;;;3.63;;
36691;SDS011;22678;52.052;4.242;2023-04-15T08:29:02;6.43;;;3.65;;
36691;SDS011;22678;52.052;4.242;2023-04-15T08:31:28;6.40;;;3.53;;
36691;SDS011;22678;52.052;4.242;2023-04-15T08:33:55;6.95;;;3.90;;
36691;SDS011;22678;52.052;4.242;2023-04-15T08:36:21;6.93;;;3.25;;
36691;SDS011;22678;52.052;4.242;2023-04-15T08:38:46;10.38;;;4.65;;
36691;SDS011;22678;52.052;4.242;2023-04-15T08:41:55;8.90;;;4.40;;
36691;SDS011;22678;52.052;4.242;2023-04-15T08:44:11;6.82;;;3.63;;
36691;SDS011;22678;52.052;4.242;2023-04-15T08:46:38;10.77;;;3.83;;
36691;SDS011;22678;52.052;4.242;2023-04-15T08:49:06;7.50;;;4.15;;
36691;SDS011;22678;52.052;4.242;2023-04-15T08:51:34;6.40;;;3.50;;
36691;SDS011;22678;52.052;4.242;2023-04-15T08:54:00;7.40;;;4.68;;
36691;SDS011;22678;52.052;4.242;2023-04-15T08:56:27;10.50;;;3.85;;
36691;SDS011;22678;52.052;4.242;2023-04-15T08:58:56;6.88;;;3.10;;
36691;SDS011;22678;52.052;4.242;2023-04-15T09:01:22;6.57;;;4.05;;
36691;SDS011;22678;52.052;4.242;2023-04-15T09:03:48;6.97;;;3.55;;
36691;SDS011;22678;52.052;4.242;2023-04-15T09:06:15;6.00;;;3.38;;
36691;SDS011;22678;52.052;4.242;2023-04-15T09:08:41;5.72;;;2.55;;
36691;SDS011;22678;52.052;4.242;2023-04-15T09:11:06;5.05;;;2.95;;
36691;SDS011;22678;52.052;4.242;2023-04-15T09:13:32;7.93;;;3.10;;
36691;SDS011;22678;52.052;4.242;2023-04-15T09:15:57;5.40;;;2.28;;
36691;SDS011;22678;52.052;4.242;2023-04-15T09:18:26;6.00;;;2.42;;
36691;SDS011;22678;52.052;4.242;2023-04-15T09:20:53;7.55;;;2.65;;
36691;SDS011;22678;52.052;4.242;2023-04-15T09:23:18;7.00;;;2.85;;
36691;SDS011;22678;52.052;4.242;2023-04-15T09:25:44;6.90;;;3.42;;
36691;SDS011;22678;52.052;4.242;2023-04-15T09:28:10;9.13;;;2.92;;
36691;SDS011;22678;52.052;4.242;2023-04-15T09:30:36;4.28;;;2.33;;
36691;SDS011;22678;52.052;4.242;2023-04-15T09:33:02;5.00;;;2.10;;
36691;SDS011;22678;52.052;4.242;2023-04-15T09:35:32;4.28;;;2.10;;
36691;SDS011;22678;52.052;4.242;2023-04-15T09:38:01;4.82;;;2.50;;
36691;SDS011;22678;52.052;4.242;2023-04-15T09:40:40;6.57;;;2.13;;
36691;SDS011;22678;52.052;4.242;2023-04-15T09:43:06;4.55;;;1.77;;
36691;SDS011;22678;52.052;4.242;2023-04-15T09:45:34;4.80;;;2.08;;
36691;SDS011;22678;52.052;4.242;2023-04-15T09:50:51;4.25;;;2.10;;
36691;SDS011;22678;52.052;4.242;2023-04-15T09:53:21;4.03;;;1.65;;
36691;SDS011;22678;52.052;4.242;2023-04-15T09:58:34;5.00;;;1.48;;
36691;SDS011;22678;52.052;4.242;2023-04-15T10:01:04;5.10;;;1.77;;
36691;SDS011;22678;52.052;4.242;2023-04-15T10:03:32;8.20;;;3.58;;
36691;SDS011;22678;52.052;4.242;2023-04-15T10:06:01;5.45;;;2.10;;
36691;SDS011;22678;52.052;4.242;2023-04-15T10:08:28;5.88;;;1.73;;
36691;SDS011;22678;52.052;4.242;2023-04-15T10:10:55;7.97;;;2.20;;
36691;SDS011;22678;52.052;4.242;2023-04-15T10:13:25;6.53;;;2.55;;
36691;SDS011;22678;52.052;4.242;2023-04-15T10:16:05;7.45;;;2.05;;
36691;SDS011;22678;52.052;4.242;2023-04-15T10:18:35;3.88;;;1.67;;
36691;SDS011;22678;52.052;4.242;2023-04-15T10:21:05;4.75;;;2.72;;
36691;SDS011;22678;52.052;4.242;2023-04-15T10:23:31;4.55;;;2.20;;
36691;SDS011;22678;52.052;4.242;2023-04-15T10:25:56;5.78;;;2.15;;
36691;SDS011;22678;52.052;4.242;2023-04-15T10:28:23;6.60;;;2.42;;
36691;SDS011;22678;52.052;4.242;2023-04-15T10:30:48;6.03;;;1.48;;
36691;SDS011;22678;52.052;4.242;2023-04-15T10:33:17;5.05;;;1.67;;
36691;SDS011;22678;52.052;4.242;2023-04-15T10:35:45;7.80;;;2.27;;
36691;SDS011;22678;52.052;4.242;2023-04-15T10:41:40;8.48;;;1.77;;
36691;SDS011;22678;52.052;4.242;2023-04-15T10:43:56;5.68;;;1.73;;
36691;SDS011;22678;52.052;4.242;2023-04-15T10:52:04;3.72;;;1.02;;
36691;SDS011;22678;52.052;4.242;2023-04-15T10:54:32;4.47;;;1.35;;
36691;SDS011;22678;52.052;4.242;2023-04-15T10:59:30;3.20;;;0.80;;
36691;SDS011;22678;52.052;4.242;2023-04-15T11:02:25;3.05;;;0.95;;
36691;SDS011;22678;52.052;4.242;2023-04-15T11:05:03;4.50;;;2.08;;
36691;SDS011;22678;52.052;4.242;2023-04-15T11:07:39;6.70;;;2.00;;
36691;SDS011;22678;52.052;4.242;2023-04-15T11:12:41;5.85;;;2.63;;
36691;SDS011;22678;52.052;4.242;2023-04-15T11:17:56;4.22;;;2.88;;
36691;SDS011;22678;52.052;4.242;2023-04-15T11:20:23;7.88;;;2.60;;
36691;SDS011;22678;52.052;4.242;2023-04-15T11:22:49;4.45;;;2.70;;
36691;SDS011;22678;52.052;4.242;2023-04-15T11:25:22;6.60;;;2.67;;
36691;SDS011;22678;52.052;4.242;2023-04-15T11:27:52;7.95;;;2.22;;
36691;SDS011;22678;52.052;4.242;2023-04-15T11:30:20;4.07;;;2.28;;
36691;SDS011;22678;52.052;4.242;2023-04-15T11:32:47;6.07;;;1.85;;
36691;SDS011;22678;52.052;4.242;2023-04-15T11:35:12;9.38;;;2.05;;
36691;SDS011;22678;52.052;4.242;2023-04-15T11:37:38;7.25;;;1.80;;
36691;SDS011;22678;52.052;4.242;2023-04-15T11:40:03;7.78;;;2.10;;
36691;SDS011;22678;52.052;4.242;2023-04-15T11:42:30;9.25;;;1.52;;
36691;SDS011;22678;52.052;4.242;2023-04-15T11:45:08;3.85;;;1.42;;
36691;SDS011;22678;52.052;4.242;2023-04-15T11:47:35;4.82;;;1.42;;
36691;SDS011;22678;52.052;4.242;2023-04-15T11:50:20;9.90;;;2.28;;
36691;SDS011;22678;52.052;4.242;2023-04-15T11:55:22;9.98;;;2.10;;
36691;SDS011;22678;52.052;4.242;2023-04-15T11:58:10;7.15;;;2.47;;
36691;SDS011;22678;52.052;4.242;2023-04-15T12:00:48;5.60;;;2.05;;
36691;SDS011;22678;52.052;4.242;2023-04-15T12:03:22;7.53;;;3.35;;
36691;SDS011;22678;52.052;4.242;2023-04-15T12:13:52;6.78;;;1.52;;
36691;SDS011;22678;52.052;4.242;2023-04-15T12:16:19;6.80;;;2.55;;
36691;SDS011;22678;52.052;4.242;2023-04-15T12:18:45;7.90;;;3.42;;
36691;SDS011;22678;52.052;4.242;2023-04-15T12:21:11;6.57;;;2.03;;
36691;SDS011;22678;52.052;4.242;2023-04-15T12:23:47;9.82;;;2.90;;
36691;SDS011;22678;52.052;4.242;2023-04-15T12:26:25;14.55;;;2.28;;
36691;SDS011;22678;52.052;4.242;2023-04-15T12:29:07;10.10;;;2.58;;
36691;SDS011;22678;52.052;4.242;2023-04-15T12:31:34;8.75;;;2.42;;
36691;SDS011;22678;52.052;4.242;2023-04-15T12:34:00;6.72;;;2.90;;
36691;SDS011;22678;52.052;4.242;2023-04-15T12:36:27;9.68;;;4.13;;
36691;SDS011;22678;52.052;4.242;2023-04-15T12:38:54;10.55;;;3.22;;
36691;SDS011;22678;52.052;4.242;2023-04-15T12:41:20;10.23;;;4.00;;
36691;SDS011;22678;52.052;4.242;2023-04-15T12:43:46;9.20;;;4.57;;
36691;SDS011;22678;52.052;4.242;2023-04-15T12:46:12;11.00;;;4.50;;
36691;SDS011;22678;52.052;4.242;2023-04-15T12:48:39;13.85;;;5.35;;
36691;SDS011;22678;52.052;4.242;2023-04-15T12:51:04;12.20;;;4.25;;
36691;SDS011;22678;52.052;4.242;2023-04-15T12:53:30;8.73;;;3.17;;
36691;SDS011;22678;52.052;4.242;2023-04-15T12:55:55;12.05;;;3.00;;
36691;SDS011;22678;52.052;4.242;2023-04-15T12:58:20;8.93;;;2.72;;
36691;SDS011;22678;52.052;4.242;2023-04-15T13:00:46;11.15;;;2.92;;
36691;SDS011;22678;52.052;4.242;2023-04-15T13:03:11;10.88;;;1.98;;
36691;SDS011;22678;52.052;4.242;2023-04-15T13:05:38;10.57;;;1.58;;
36691;SDS011;22678;52.052;4.242;2023-04-15T13:08:04;7.75;;;2.45;;
36691;SDS011;22678;52.052;4.242;2023-04-15T13:10:29;5.65;;;2.05;;
36691;SDS011;22678;52.052;4.242;2023-04-15T13:12:55;6.30;;;1.88;;
36691;SDS011;22678;52.052;4.242;2023-04-15T13:15:21;10.10;;;1.50;;
36691;SDS011;22678;52.052;4.242;2023-04-15T13:17:47;3.35;;;0.80;;
36691;SDS011;22678;52.052;4.242;2023-04-15T13:20:12;4.72;;;1.25;;
36691;SDS011;22678;52.052;4.242;2023-04-15T13:22:38;5.35;;;1.65;;
36691;SDS011;22678;52.052;4.242;2023-04-15T13:25:03;7.85;;;1.10;;
36691;SDS011;22678;52.052;4.242;2023-04-15T13:27:29;18.13;;;1.83;;
36691;SDS011;22678;52.052;4.242;2023-04-15T13:32:22;7.72;;;2.03;;
36691;SDS011;22678;52.052;4.242;2023-04-15T13:34:47;7.53;;;1.33;;
36691;SDS011;22678;52.052;4.242;2023-04-15T13:37:12;9.32;;;2.38;;
36691;SDS011;22678;52.052;4.242;2023-04-15T13:39:38;9.27;;;1.60;;
36691;SDS011;22678;52.052;4.242;2023-04-15T13:42:03;7.05;;;1.83;;
36691;SDS011;22678;52.052;4.242;2023-04-15T13:44:29;5.75;;;1.05;;
36691;SDS011;22678;52.052;4.242;2023-04-15T13:46:54;5.70;;;1.20;;
36691;SDS011;22678;52.052;4.242;2023-04-15T13:49:20;9.82;;;1.80;;
36691;SDS011;22678;52.052;4.242;2023-04-15T13:51:45;7.18;;;1.40;;
36691;SDS011;22678;52.052;4.242;2023-04-15T13:54:10;9.45;;;1.95;;
36691;SDS011;22678;52.052;4.242;2023-04-15T13:56:36;11.88;;;2.90;;
36691;SDS011;22678;52.052;4.242;2023-04-15T13:59:01;5.38;;;1.60;;
36691;SDS011;22678;52.052;4.242;2023-04-15T14:01:27;7.35;;;0.85;;
36691;SDS011;22678;52.052;4.242;2023-04-15T14:03:53;3.53;;;0.85;;
36691;SDS011;22678;52.052;4.242;2023-04-15T14:06:18;7.45;;;1.83;;
36691;SDS011;22678;52.052;4.242;2023-04-15T14:08:43;7.15;;;1.08;;
36691;SDS011;22678;52.052;4.242;2023-04-15T14:11:09;5.20;;;0.95;;
36691;SDS011;22678;52.052;4.242;2023-04-15T14:13:35;7.55;;;1.33;;
36691;SDS011;22678;52.052;4.242;2023-04-15T14:16:00;5.95;;;1.00;;
36691;SDS011;22678;52.052;4.242;2023-04-15T14:18:26;6.13;;;0.90;;
36691;SDS011;22678;52.052;4.242;2023-04-15T14:20:51;7.90;;;1.02;;
36691;SDS011;22678;52.052;4.242;2023-04-15T14:23:16;12.70;;;1.58;;
36691;SDS011;22678;52.052;4.242;2023-04-15T14:25:42;5.72;;;1.65;;
36691;SDS011;22678;52.052;4.242;2023-04-15T14:28:07;6.60;;;1.27;;
36691;SDS011;22678;52.052;4.242;2023-04-15T14:30:32;12.48;;;1.23;;
36691;SDS011;22678;52.052;4.242;2023-04-15T14:32:58;6.10;;;1.25;;
36691;SDS011;22678;52.052;4.242;2023-04-15T14:35:23;10.40;;;1.58;;
36691;SDS011;22678;52.052;4.242;2023-04-15T14:37:50;9.80;;;1.45;;
36691;SDS011;22678;52.052;4.242;2023-04-15T14:40:16;7.03;;;1.52;;
36691;SDS011;22678;52.052;4.242;2023-04-15T14:42:42;5.43;;;1.83;;
36691;SDS011;22678;52.052;4.242;2023-04-15T14:45:07;5.13;;;1.80;;
36691;SDS011;22678;52.052;4.242;2023-04-15T14:47:33;19.83;;;2.53;;
36691;SDS011;22678;52.052;4.242;2023-04-15T14:49:59;5.28;;;1.33;;
36691;SDS011;22678;52.052;4.242;2023-04-15T14:52:25;6.97;;;1.02;;
36691;SDS011;22678;52.052;4.242;2023-04-15T14:54:50;5.80;;;1.80;;
36691;SDS011;22678;52.052;4.242;2023-04-15T14:57:15;7.03;;;1.45;;
36691;SDS011;22678;52.052;4.242;2023-04-15T14:59:40;5.35;;;1.02;;
36691;SDS011;22678;52.052;4.242;2023-04-15T15:02:06;6.90;;;1.25;;
36691;SDS011;22678;52.052;4.242;2023-04-15T15:04:32;5.35;;;0.50;;
36691;SDS011;22678;52.052;4.242;2023-04-15T15:06:58;5.10;;;0.63;;
36691;SDS011;22678;52.052;4.242;2023-04-15T15:09:24;4.82;;;0.80;;
36691;SDS011;22678;52.052;4.242;2023-04-15T15:11:49;3.72;;;0.60;;
36691;SDS011;22678;52.052;4.242;2023-04-15T15:14:15;5.70;;;1.70;;
36691;SDS011;22678;52.052;4.242;2023-04-15T15:16:41;16.55;;;2.17;;